WP4MXZ San Sebastian PR US current weather conditions

sailwx.info

Wind from 220 at 4 knots gusting 9

Air temperature 29.4° C
Dewpoint 29.4° C

Last reported at 2014-Aug-23 18:04 UTC.
Time now 2014-Aug-23 19:53 UTC

Location: N 18°20' W 067°00'.
View on Google Maps.

See reports from other nearby stations

  
Tides and Currents Weather Stations Pressure Air Temp Water Temp Dewpoint Dewpoint Depression Visibility Wind Speed Wind Dir Waves Ship Positions
date/time (UTC)wind fromknots sea level pressurealtimeterstation pressurevisibilityair tempwater tempwave heightnotes
2014-Aug-23 18:04 220 4 gusting 9 29.4
2014-Aug-23 17:33 201 3 gusting 9 30.6
2014-Aug-23 17:03 204 0 gusting 6 29.4
2014-Aug-23 16:33 227 2 gusting 9 28.3
2014-Aug-23 16:03 216 4 gusting 8 28.3
2014-Aug-23 15:33 174 3 gusting 6 28.9
2014-Aug-23 15:03 227 28.9
2014-Aug-23 14:33 221 0 gusting 5 28.3
2014-Aug-23 14:04 244 27.8
2014-Aug-23 13:33 235 0 gusting 4 27.2
2014-Aug-23 13:03 094 26.7
2014-Aug-23 12:34 149 25.6
2014-Aug-23 12:03 149 24.4
2014-Aug-23 11:34 149 23.9
2014-Aug-23 11:04 149 23.9
2014-Aug-23 10:34 149 23.3
2014-Aug-23 10:03 149 23.3
2014-Aug-23 09:34 149 23.3
2014-Aug-23 09:04 149 23.3
2014-Aug-23 08:34 149 23.3
2014-Aug-23 08:03 149 23.3
2014-Aug-23 07:34 143 0 gusting 4 23.3
2014-Aug-23 07:03 173 23.3
2014-Aug-23 06:33 172 23.3
2014-Aug-23 06:03 172 23.3
2014-Aug-23 05:34 172 23.3
2014-Aug-23 05:04 172 23.3
2014-Aug-23 04:34 172 23.3
2014-Aug-23 04:03 172 23.9
2014-Aug-23 03:34 172 23.9
2014-Aug-23 03:04 172 23.9
2014-Aug-23 02:34 172 23.9
2014-Aug-23 02:03 172 23.9
2014-Aug-23 01:34 172 23.9
2014-Aug-23 01:03 172 23.9
2014-Aug-23 00:33 172 23.9
2014-Aug-23 00:04 172 24.4
2014-Aug-22 23:33 172 24.4
2014-Aug-22 23:03 172 24.4
2014-Aug-22 22:34 172 24.4
2014-Aug-22 22:04 172 24.4
2014-Aug-22 21:34 172 25.0
2014-Aug-22 21:03 172 25.0
2014-Aug-22 20:33 172 25.0
2014-Aug-22 20:03 172 25.0
2014-Aug-22 19:34 172 25.0
2014-Aug-22 19:04 172 25.0
2014-Aug-22 18:34 172 24.4
2014-Aug-22 18:04 172 24.4
2014-Aug-22 17:34 094 24.4
2014-Aug-22 17:04 122 24.4
2014-Aug-22 16:33 176 1 gusting 12 28.9
2014-Aug-22 16:03 354 30.6
2014-Aug-22 15:33 215 30.0
2014-Aug-22 15:03 083 2 gusting 6 29.4
2014-Aug-22 14:33 198 0 gusting 5 28.9
2014-Aug-22 14:03 112 28.3
2014-Aug-22 13:33 120 1 gusting 6 28.3
2014-Aug-22 13:03 108 27.2
2014-Aug-22 12:33 117 26.1
2014-Aug-22 12:03 178 25.6
2014-Aug-22 11:33 226 25.0
2014-Aug-22 11:03 183 25.0
2014-Aug-22 10:33 183 24.4
2014-Aug-22 10:03 183 24.4
2014-Aug-22 09:33 149 24.4
2014-Aug-22 09:03 149 24.4
2014-Aug-22 08:33 150 25.0
2014-Aug-22 08:03 168 24.4
2014-Aug-22 07:33 120 24.4
2014-Aug-22 07:03 120 24.4
2014-Aug-22 06:33 120 24.4
2014-Aug-22 06:03 120 24.4
2014-Aug-22 05:33 120 24.4
2014-Aug-22 05:03 168 24.4
2014-Aug-22 04:33 168 24.4
2014-Aug-22 04:03 168 24.4
2014-Aug-22 03:33 168 24.4
2014-Aug-22 03:03 168 24.4
2014-Aug-22 02:33 169 25.0
2014-Aug-22 02:03 112 0 gusting 3 25.0
2014-Aug-22 01:34 093 0 gusting 6 25.6
2014-Aug-22 01:03 114 25.6
2014-Aug-22 00:33 142 26.1
2014-Aug-22 00:03 116 0 gusting 4 25.6
2014-Aug-21 23:33 175 26.1
2014-Aug-21 23:03 156 0 gusting 5 25.6
2014-Aug-21 22:33 155 25.6
2014-Aug-21 22:03 101 5 gusting 7 28.3
2014-Aug-21 21:33 078 4 gusting 6 29.4
2014-Aug-21 21:03 124 4 gusting 12 30.0
2014-Aug-21 20:33 119 5 gusting 9 30.6
2014-Aug-21 20:03 154 6 gusting 10 30.6
2014-Aug-21 19:33 099 4 gusting 12 30.0
2014-Aug-21 19:03 104 7 gusting 13 30.6